Pago Pago, AS

11:26 PM SST on October 31, 2014 (GMT -1100)
Kona International At Keahole | Change Station
CLOSE
Current Station
Airport
Location: Keahole Point,
Elevation: 43 ft
Nearby Weather Stations

Elev 43 ft 19.74 °N, 156.05 °W | Updated 33 minutes ago

Mostly Cloudy
Mostly Cloudy
79 °F
Feels Like 79 °F
N
6
Wind Variable Wind from ESE

Today
High -- | Low -- °F
--% Chance of Precip.
Yesterday
High -- | Low -- °F
Precip. -- in
5:48 AM 6:24 PM
Waxing Gibbous, 65% visible
Pressure 30.00 in
Visibility 10.0 miles
Clouds Mostly Cloudy 5500 ft
Dew Point 66 °F
Humidity 64%
Rainfall 0.00 in
Snow Depth Not available.
UV 0 out of 12
Pollen Not available.
Air Quality Not available.
Flu Activity Not available.
METAR PHKO 010953Z 12005KT 10SM BKN055 26/19 A3000 RMK AO2 SLP157 T02610189 403000239

More Conditions Fewer Conditions

Pressure 30.00 in
Visibility 10.0 miles
Clouds Mostly Cloudy 5500 ft
Dew Point 66 °F
Humidity 64%
Rainfall 0.00 in
Snow Depth Not available.
UV 0 out of 12
Pollen Not available.
Air Quality Not available.
Flu Activity Not available.
METAR PHKO 010953Z 12005KT 10SM BKN055 26/19 A3000 RMK AO2 SLP157 T02610189 403000239

More Conditions Fewer Conditions

10-Day Weather Forecast

Almanac

Astronomy

Oct. 31, 2014 Rise Set
Actual Time
Civil Twilight
Nautical Twilight
Astronomical Twilight
Moon
Length of Visible Light
Length of Day
Tomorrow will be .
, % of the Moon is Illuminated

Today's Extremes

State Highs State Lows

Community

WunderPhotos

Upload Photos

1,766,874 photos uploaded!

WunderBlogs® & News

Nearby

Air Quality

  Air Quality AQ Index Pollutant
Not available.

Snow Depth

Station Depth Elevation

Earthquake Activity

City Distance Mag. Time & Date
Minimum magnitude displayed is 2.5.

Coastal Water Temperatures

Place Temperature

Nearby Weather Stations